sensor_id;sensor_type;location;lat;lon;timestamp;pressure;altitude;pressure_sealevel;temperature;humidity
55990;BME280;41875;55.806;38.082;2023-05-11T00:02:16;99964.56;;;13.69;34.39
55990;BME280;41875;55.806;38.082;2023-05-11T00:04:44;99976.00;;;13.86;32.93
55990;BME280;41875;55.806;38.082;2023-05-11T00:07:13;99968.31;;;14.08;33.68
55990;BME280;41875;55.806;38.082;2023-05-11T00:09:43;99972.78;;;14.15;32.78
55990;BME280;41875;55.806;38.082;2023-05-11T00:12:11;99966.94;;;14.20;32.41
55990;BME280;41875;55.806;38.082;2023-05-11T00:14:40;99968.94;;;14.18;32.79
55990;BME280;41875;55.806;38.082;2023-05-11T00:17:08;99971.72;;;14.33;31.85
55990;BME280;41875;55.806;38.082;2023-05-11T00:19:37;99972.69;;;14.40;31.77
55990;BME280;41875;55.806;38.082;2023-05-11T00:22:06;99965.47;;;14.49;32.50
55990;BME280;41875;55.806;38.082;2023-05-11T00:24:34;99978.34;;;14.45;33.05
55990;BME280;41875;55.806;38.082;2023-05-11T00:27:04;99977.41;;;14.30;33.75
55990;BME280;41875;55.806;38.082;2023-05-11T00:29:33;99974.59;;;14.23;34.19
55990;BME280;41875;55.806;38.082;2023-05-11T00:32:01;99979.44;;;14.20;34.52
55990;BME280;41875;55.806;38.082;2023-05-11T00:34:30;99979.06;;;14.23;33.84
55990;BME280;41875;55.806;38.082;2023-05-11T00:36:58;99982.41;;;14.25;33.93
55990;BME280;41875;55.806;38.082;2023-05-11T00:39:27;99977.44;;;14.22;34.02
55990;BME280;41875;55.806;38.082;2023-05-11T00:41:55;99983.97;;;14.02;35.10
55990;BME280;41875;55.806;38.082;2023-05-11T00:44:25;99970.00;;;13.92;35.61
55990;BME280;41875;55.806;38.082;2023-05-11T00:46:53;99978.66;;;13.94;35.52
55990;BME280;41875;55.806;38.082;2023-05-11T00:49:22;99974.63;;;14.07;34.45
55990;BME280;41875;55.806;38.082;2023-05-11T00:51:50;99988.09;;;14.13;34.67
55990;BME280;41875;55.806;38.082;2023-05-11T00:54:19;99979.91;;;14.23;34.86
55990;BME280;41875;55.806;38.082;2023-05-11T00:56:48;99979.19;;;14.38;33.77
55990;BME280;41875;55.806;38.082;2023-05-11T00:59:16;99971.88;;;14.40;33.78
55990;BME280;41875;55.806;38.082;2023-05-11T01:01:46;99976.59;;;14.69;32.83
55990;BME280;41875;55.806;38.082;2023-05-11T01:04:15;99973.34;;;14.82;31.40
55990;BME280;41875;55.806;38.082;2023-05-11T01:06:48;99976.59;;;15.01;31.07
55990;BME280;41875;55.806;38.082;2023-05-11T01:09:29;99970.47;;;15.15;31.91
55990;BME280;41875;55.806;38.082;2023-05-11T01:12:17;99978.25;;;15.02;32.81
55990;BME280;41875;55.806;38.082;2023-05-11T01:14:55;99981.34;;;14.42;34.64
55990;BME280;41875;55.806;38.082;2023-05-11T01:17:37;99980.00;;;14.38;35.01
55990;BME280;41875;55.806;38.082;2023-05-11T01:20:14;99977.72;;;14.35;34.93
55990;BME280;41875;55.806;38.082;2023-05-11T01:22:58;99980.13;;;14.53;34.23
55990;BME280;41875;55.806;38.082;2023-05-11T01:25:42;99972.81;;;14.47;34.44
55990;BME280;41875;55.806;38.082;2023-05-11T01:28:24;99982.06;;;14.28;35.41
55990;BME280;41875;55.806;38.082;2023-05-11T01:31:00;99976.25;;;14.16;35.57
55990;BME280;41875;55.806;38.082;2023-05-11T01:33:32;99982.91;;;14.20;35.85
55990;BME280;41875;55.806;38.082;2023-05-11T01:36:05;99986.91;;;14.16;35.91
55990;BME280;41875;55.806;38.082;2023-05-11T01:38:39;99994.47;;;14.04;36.44
55990;BME280;41875;55.806;38.082;2023-05-11T01:41:13;99988.63;;;14.00;36.50
55990;BME280;41875;55.806;38.082;2023-05-11T01:43:46;99986.63;;;14.02;36.15
55990;BME280;41875;55.806;38.082;2023-05-11T01:46:20;99990.31;;;13.93;36.67
55990;BME280;41875;55.806;38.082;2023-05-11T01:48:55;99992.13;;;14.01;36.60
55990;BME280;41875;55.806;38.082;2023-05-11T01:51:27;99984.47;;;14.06;36.71
55990;BME280;41875;55.806;38.082;2023-05-11T01:53:58;99977.78;;;14.18;35.85
55990;BME280;41875;55.806;38.082;2023-05-11T01:56:28;99987.09;;;14.14;36.58
55990;BME280;41875;55.806;38.082;2023-05-11T01:58:58;99987.13;;;13.98;37.15
55990;BME280;41875;55.806;38.082;2023-05-11T02:01:29;99985.31;;;13.98;36.86
55990;BME280;41875;55.806;38.082;2023-05-11T02:04:01;99982.66;;;13.98;36.95
55990;BME280;41875;55.806;38.082;2023-05-11T02:06:31;99987.31;;;13.96;37.64
55990;BME280;41875;55.806;38.082;2023-05-11T02:09:02;99980.16;;;13.89;37.48
55990;BME280;41875;55.806;38.082;2023-05-11T02:11:33;99986.66;;;13.86;37.41
55990;BME280;41875;55.806;38.082;2023-05-11T02:14:03;99986.97;;;13.91;37.04
55990;BME280;41875;55.806;38.082;2023-05-11T02:16:35;99979.81;;;14.00;36.73
55990;BME280;41875;55.806;38.082;2023-05-11T02:19:05;99990.66;;;13.98;36.88
55990;BME280;41875;55.806;38.082;2023-05-11T02:21:55;99983.28;;;14.00;36.58
55990;BME280;41875;55.806;38.082;2023-05-11T02:24:25;99986.81;;;14.01;36.20
55990;BME280;41875;55.806;38.082;2023-05-11T02:26:54;99971.31;;;14.05;36.12
55990;BME280;41875;55.806;38.082;2023-05-11T02:29:23;99983.09;;;14.10;35.88
55990;BME280;41875;55.806;38.082;2023-05-11T02:31:56;99981.28;;;14.11;35.60
55990;BME280;41875;55.806;38.082;2023-05-11T02:34:27;99981.44;;;14.09;36.46
55990;BME280;41875;55.806;38.082;2023-05-11T02:36:58;99981.00;;;13.97;36.90
55990;BME280;41875;55.806;38.082;2023-05-11T02:39:34;99986.63;;;14.11;36.32
55990;BME280;41875;55.806;38.082;2023-05-11T02:42:08;99984.09;;;14.17;35.86
55990;BME280;41875;55.806;38.082;2023-05-11T02:44:43;99991.44;;;14.15;36.27
55990;BME280;41875;55.806;38.082;2023-05-11T02:47:16;99992.75;;;14.20;36.38
55990;BME280;41875;55.806;38.082;2023-05-11T02:49:48;99999.34;;;14.40;36.26
55990;BME280;41875;55.806;38.082;2023-05-11T02:52:22;100000.53;;;14.38;36.54
55990;BME280;41875;55.806;38.082;2023-05-11T02:54:53;99997.81;;;14.46;36.04
55990;BME280;41875;55.806;38.082;2023-05-11T02:57:23;99992.25;;;14.16;37.10
55990;BME280;41875;55.806;38.082;2023-05-11T02:59:53;100003.19;;;14.29;37.10
55990;BME280;41875;55.806;38.082;2023-05-11T03:02:22;99997.09;;;14.21;37.17
55990;BME280;41875;55.806;38.082;2023-05-11T03:04:52;100008.25;;;13.99;37.98
55990;BME280;41875;55.806;38.082;2023-05-11T03:07:20;100002.78;;;14.01;38.09
55990;BME280;41875;55.806;38.082;2023-05-11T03:09:49;100001.78;;;14.02;37.54
55990;BME280;41875;55.806;38.082;2023-05-11T03:12:17;99999.28;;;14.09;37.90
55990;BME280;41875;55.806;38.082;2023-05-11T03:14:47;100001.31;;;13.98;37.97
55990;BME280;41875;55.806;38.082;2023-05-11T03:17:16;100005.94;;;14.13;37.94
55990;BME280;41875;55.806;38.082;2023-05-11T03:19:48;100007.28;;;13.92;38.06
55990;BME280;41875;55.806;38.082;2023-05-11T03:22:18;100008.94;;;14.01;37.78
55990;BME280;41875;55.806;38.082;2023-05-11T03:24:48;100007.59;;;14.14;38.31
55990;BME280;41875;55.806;38.082;2023-05-11T03:27:17;100010.91;;;14.24;37.94
55990;BME280;41875;55.806;38.082;2023-05-11T03:29:45;100014.56;;;14.71;36.47
55990;BME280;41875;55.806;38.082;2023-05-11T03:32:14;100022.28;;;14.58;37.31
55990;BME280;41875;55.806;38.082;2023-05-11T03:34:43;100025.53;;;14.20;38.48
55990;BME280;41875;55.806;38.082;2023-05-11T03:37:16;100026.06;;;14.15;38.31
55990;BME280;41875;55.806;38.082;2023-05-11T03:39:51;100021.06;;;14.21;37.91
55990;BME280;41875;55.806;38.082;2023-05-11T03:42:24;100021.19;;;14.36;37.61
55990;BME280;41875;55.806;38.082;2023-05-11T03:44:54;100018.00;;;14.40;37.42
55990;BME280;41875;55.806;38.082;2023-05-11T03:47:26;100025.91;;;14.65;37.52
55990;BME280;41875;55.806;38.082;2023-05-11T03:49:55;100022.34;;;14.89;36.98
55990;BME280;41875;55.806;38.082;2023-05-11T03:52:26;100028.44;;;14.98;37.16
55990;BME280;41875;55.806;38.082;2023-05-11T03:54:55;100026.97;;;14.96;36.89
55990;BME280;41875;55.806;38.082;2023-05-11T03:57:24;100040.59;;;14.61;36.29
55990;BME280;41875;55.806;38.082;2023-05-11T03:59:53;100028.03;;;14.30;37.71
55990;BME280;41875;55.806;38.082;2023-05-11T04:02:22;100022.50;;;14.31;37.32
55990;BME280;41875;55.806;38.082;2023-05-11T04:04:51;100031.22;;;14.82;37.42
55990;BME280;41875;55.806;38.082;2023-05-11T04:07:19;100026.81;;;15.44;36.31
55990;BME280;41875;55.806;38.082;2023-05-11T04:09:49;100022.34;;;15.59;36.34
55990;BME280;41875;55.806;38.082;2023-05-11T04:12:17;100031.06;;;15.99;35.54
55990;BME280;41875;55.806;38.082;2023-05-11T04:14:45;100034.69;;;15.83;35.86
55990;BME280;41875;55.806;38.082;2023-05-11T04:17:13;100034.22;;;16.78;34.79
55990;BME280;41875;55.806;38.082;2023-05-11T04:19:43;100037.25;;;17.27;33.30
55990;BME280;41875;55.806;38.082;2023-05-11T04:22:11;100037.47;;;17.97;32.36
55990;BME280;41875;55.806;38.082;2023-05-11T04:24:39;100044.22;;;17.93;32.20
55990;BME280;41875;55.806;38.082;2023-05-11T04:27:09;100047.31;;;18.53;31.73
55990;BME280;41875;55.806;38.082;2023-05-11T04:29:39;100049.72;;;18.35;32.84
55990;BME280;41875;55.806;38.082;2023-05-11T04:32:09;100053.34;;;19.04;31.59
55990;BME280;41875;55.806;38.082;2023-05-11T04:34:38;100045.16;;;19.19;31.41
55990;BME280;41875;55.806;38.082;2023-05-11T04:37:07;100057.72;;;17.56;33.54
55990;BME280;41875;55.806;38.082;2023-05-11T04:39:37;100048.22;;;17.75;33.29
55990;BME280;41875;55.806;38.082;2023-05-11T04:42:05;100052.56;;;17.98;33.25
55990;BME280;41875;55.806;38.082;2023-05-11T04:44:35;100047.63;;;18.72;31.95
55990;BME280;41875;55.806;38.082;2023-05-11T04:47:04;100053.28;;;17.92;33.37
55990;BME280;41875;55.806;38.082;2023-05-11T04:49:33;100057.97;;;18.05;33.59
55990;BME280;41875;55.806;38.082;2023-05-11T04:52:01;100049.88;;;19.10;32.12
55990;BME280;41875;55.806;38.082;2023-05-11T04:54:33;100040.97;;;18.61;32.50
55990;BME280;41875;55.806;38.082;2023-05-11T04:57:02;100045.47;;;18.54;33.05
55990;BME280;41875;55.806;38.082;2023-05-11T04:59:30;100043.22;;;18.99;32.11
55990;BME280;41875;55.806;38.082;2023-05-11T05:02:00;100038.34;;;19.30;31.50
55990;BME280;41875;55.806;38.082;2023-05-11T05:04:28;100035.47;;;19.31;31.70
55990;BME280;41875;55.806;38.082;2023-05-11T05:07:00;100026.31;;;19.06;32.01
55990;BME280;41875;55.806;38.082;2023-05-11T05:09:28;100043.28;;;18.29;33.58
55990;BME280;41875;55.806;38.082;2023-05-11T05:11:58;100040.94;;;18.54;33.18
55990;BME280;41875;55.806;38.082;2023-05-11T05:14:27;100047.63;;;17.15;35.75
55990;BME280;41875;55.806;38.082;2023-05-11T05:16:55;100039.88;;;17.42;35.11
55990;BME280;41875;55.806;38.082;2023-05-11T05:19:24;100046.03;;;17.42;35.15
55990;BME280;41875;55.806;38.082;2023-05-11T05:21:53;100048.19;;;17.10;35.58
55990;BME280;41875;55.806;38.082;2023-05-11T05:24:21;100048.16;;;17.68;34.59
55990;BME280;41875;55.806;38.082;2023-05-11T05:26:50;100041.16;;;17.96;34.43
55990;BME280;41875;55.806;38.082;2023-05-11T05:29:18;100035.38;;;18.21;33.81
55990;BME280;41875;55.806;38.082;2023-05-11T05:31:47;100030.75;;;18.78;33.14
55990;BME280;41875;55.806;38.082;2023-05-11T05:34:17;100035.22;;;19.19;32.13
55990;BME280;41875;55.806;38.082;2023-05-11T05:36:46;100041.47;;;19.40;31.64
55990;BME280;41875;55.806;38.082;2023-05-11T05:39:15;100040.50;;;19.95;30.34
55990;BME280;41875;55.806;38.082;2023-05-11T05:41:43;100043.13;;;20.29;29.74
55990;BME280;41875;55.806;38.082;2023-05-11T05:44:12;100045.00;;;20.28;30.22
55990;BME280;41875;55.806;38.082;2023-05-11T05:46:41;100033.06;;;20.69;29.28
55990;BME280;41875;55.806;38.082;2023-05-11T05:49:09;100043.53;;;21.05;29.07
55990;BME280;41875;55.806;38.082;2023-05-11T05:51:38;100039.38;;;21.09;28.54
55990;BME280;41875;55.806;38.082;2023-05-11T05:54:08;100036.75;;;20.89;28.09
55990;BME280;41875;55.806;38.082;2023-05-11T05:56:37;100034.69;;;20.12;30.11
55990;BME280;41875;55.806;38.082;2023-05-11T05:59:06;100041.03;;;21.03;29.29
55990;BME280;41875;55.806;38.082;2023-05-11T06:01:36;100033.25;;;21.27;28.02
55990;BME280;41875;55.806;38.082;2023-05-11T06:04:13;100034.97;;;21.78;25.99
55990;BME280;41875;55.806;38.082;2023-05-11T06:06:41;100036.66;;;22.79;25.73
55990;BME280;41875;55.806;38.082;2023-05-11T06:09:11;100030.81;;;23.43;25.53
55990;BME280;41875;55.806;38.082;2023-05-11T06:11:39;100032.84;;;22.50;25.52
55990;BME280;41875;55.806;38.082;2023-05-11T06:14:07;100036.88;;;23.27;25.14
55990;BME280;41875;55.806;38.082;2023-05-11T06:16:36;100042.84;;;22.05;26.54
55990;BME280;41875;55.806;38.082;2023-05-11T06:19:04;100044.94;;;22.03;26.51
55990;BME280;41875;55.806;38.082;2023-05-11T06:21:33;100045.84;;;22.16;26.79
55990;BME280;41875;55.806;38.082;2023-05-11T06:24:01;100045.59;;;22.80;25.02
55990;BME280;41875;55.806;38.082;2023-05-11T06:26:33;100053.16;;;22.52;25.56
55990;BME280;41875;55.806;38.082;2023-05-11T06:29:02;100047.03;;;21.76;24.76
55990;BME280;41875;55.806;38.082;2023-05-11T06:31:30;100049.78;;;21.95;26.13
55990;BME280;41875;55.806;38.082;2023-05-11T06:33:58;100046.28;;;21.87;26.09
55990;BME280;41875;55.806;38.082;2023-05-11T06:36:28;100044.59;;;21.36;25.96
55990;BME280;41875;55.806;38.082;2023-05-11T06:38:58;100046.91;;;21.25;26.03
55990;BME280;41875;55.806;38.082;2023-05-11T06:41:26;100044.97;;;21.07;26.12
55990;BME280;41875;55.806;38.082;2023-05-11T06:43:56;100045.38;;;22.00;25.61
55990;BME280;41875;55.806;38.082;2023-05-11T06:46:27;100054.03;;;21.13;26.10
55990;BME280;41875;55.806;38.082;2023-05-11T06:48:55;100049.91;;;21.10;26.35
55990;BME280;41875;55.806;38.082;2023-05-11T06:51:23;100048.53;;;22.16;24.83
55990;BME280;41875;55.806;38.082;2023-05-11T06:53:51;100061.59;;;21.68;24.19
55990;BME280;41875;55.806;38.082;2023-05-11T06:56:19;100051.78;;;22.25;24.60
55990;BME280;41875;55.806;38.082;2023-05-11T06:58:48;100049.19;;;22.55;23.25
55990;BME280;41875;55.806;38.082;2023-05-11T07:01:17;100044.19;;;22.15;23.86
55990;BME280;41875;55.806;38.082;2023-05-11T07:03:45;100049.13;;;22.43;23.73
55990;BME280;41875;55.806;38.082;2023-05-11T07:06:16;100047.41;;;21.80;23.98
55990;BME280;41875;55.806;38.082;2023-05-11T07:08:45;100044.81;;;22.91;23.52
55990;BME280;41875;55.806;38.082;2023-05-11T07:11:14;100037.34;;;22.56;23.26
55990;BME280;41875;55.806;38.082;2023-05-11T07:13:42;100041.78;;;22.99;23.75
55990;BME280;41875;55.806;38.082;2023-05-11T07:16:10;100037.00;;;23.86;22.37
55990;BME280;41875;55.806;38.082;2023-05-11T07:18:40;100034.16;;;23.57;23.36
55990;BME280;41875;55.806;38.082;2023-05-11T07:21:08;100045.59;;;24.19;22.21
55990;BME280;41875;55.806;38.082;2023-05-11T07:23:36;100040.78;;;23.31;22.26
55990;BME280;41875;55.806;38.082;2023-05-11T07:26:05;100034.25;;;23.63;23.13
55990;BME280;41875;55.806;38.082;2023-05-11T07:28:34;100034.81;;;22.61;23.93
55990;BME280;41875;55.806;38.082;2023-05-11T07:31:03;100034.75;;;23.59;22.89
55990;BME280;41875;55.806;38.082;2023-05-11T07:33:31;100041.78;;;22.06;23.78
55990;BME280;41875;55.806;38.082;2023-05-11T07:36:01;100048.91;;;21.75;24.23
55990;BME280;41875;55.806;38.082;2023-05-11T07:38:29;100052.47;;;21.69;23.80
55990;BME280;41875;55.806;38.082;2023-05-11T07:40:58;100048.91;;;21.75;24.45
55990;BME280;41875;55.806;38.082;2023-05-11T07:43:26;100045.97;;;22.02;23.84
55990;BME280;41875;55.806;38.082;2023-05-11T07:45:54;100039.78;;;20.53;25.30
55990;BME280;41875;55.806;38.082;2023-05-11T07:48:23;100034.88;;;20.30;25.74
55990;BME280;41875;55.806;38.082;2023-05-11T07:50:51;100033.44;;;20.07;26.03
55990;BME280;41875;55.806;38.082;2023-05-11T07:53:20;100031.78;;;21.31;24.34
55990;BME280;41875;55.806;38.082;2023-05-11T07:55:49;100041.47;;;20.41;24.87
55990;BME280;41875;55.806;38.082;2023-05-11T07:58:17;100035.47;;;20.98;24.61
55990;BME280;41875;55.806;38.082;2023-05-11T08:00:45;100031.44;;;20.75;24.35
55990;BME280;41875;55.806;38.082;2023-05-11T08:03:13;100047.22;;;21.10;24.19
55990;BME280;41875;55.806;38.082;2023-05-11T08:05:41;100032.09;;;21.99;23.40
55990;BME280;41875;55.806;38.082;2023-05-11T08:08:10;100028.00;;;21.39;24.25
55990;BME280;41875;55.806;38.082;2023-05-11T08:10:39;100029.16;;;22.63;23.15
55990;BME280;41875;55.806;38.082;2023-05-11T08:13:08;100051.78;;;22.99;22.46
55990;BME280;41875;55.806;38.082;2023-05-11T08:15:36;100038.22;;;21.62;24.23
55990;BME280;41875;55.806;38.082;2023-05-11T08:18:04;100026.81;;;23.16;22.39
55990;BME280;41875;55.806;38.082;2023-05-11T08:20:33;100026.16;;;22.90;22.96
55990;BME280;41875;55.806;38.082;2023-05-11T08:23:01;100026.88;;;23.94;21.83
55990;BME280;41875;55.806;38.082;2023-05-11T08:25:29;100047.47;;;23.28;21.56
55990;BME280;41875;55.806;38.082;2023-05-11T08:27:59;100029.84;;;23.38;22.36
55990;BME280;41875;55.806;38.082;2023-05-11T08:30:27;100030.50;;;23.75;21.76
55990;BME280;41875;55.806;38.082;2023-05-11T08:32:56;100027.47;;;23.96;21.88
55990;BME280;41875;55.806;38.082;2023-05-11T08:35:25;100015.34;;;23.20;22.65
55990;BME280;41875;55.806;38.082;2023-05-11T08:37:53;100023.44;;;23.51;22.09
55990;BME280;41875;55.806;38.082;2023-05-11T08:40:22;100037.50;;;23.10;22.36
55990;BME280;41875;55.806;38.082;2023-05-11T08:42:51;100022.50;;;22.96;22.83
55990;BME280;41875;55.806;38.082;2023-05-11T08:45:23;100016.34;;;23.38;22.04
55990;BME280;41875;55.806;38.082;2023-05-11T08:47:53;100007.16;;;24.58;21.04
55990;BME280;41875;55.806;38.082;2023-05-11T08:50:21;100003.94;;;24.32;20.87
55990;BME280;41875;55.806;38.082;2023-05-11T08:52:49;100002.91;;;25.49;20.48
55990;BME280;41875;55.806;38.082;2023-05-11T08:55:18;99994.38;;;24.41;21.50
55990;BME280;41875;55.806;38.082;2023-05-11T08:57:48;99988.25;;;24.87;21.34
55990;BME280;41875;55.806;38.082;2023-05-11T09:00:18;99997.00;;;23.77;22.80
55990;BME280;41875;55.806;38.082;2023-05-11T09:02:50;99983.47;;;23.88;22.60
55990;BME280;41875;55.806;38.082;2023-05-11T09:05:19;100001.13;;;25.08;21.30
55990;BME280;41875;55.806;38.082;2023-05-11T09:07:48;99994.31;;;25.23;20.45
55990;BME280;41875;55.806;38.082;2023-05-11T09:10:18;99978.56;;;24.50;21.57
55990;BME280;41875;55.806;38.082;2023-05-11T09:12:46;99975.47;;;22.17;24.34
55990;BME280;41875;55.806;38.082;2023-05-11T09:15:14;99971.94;;;23.81;22.87
55990;BME280;41875;55.806;38.082;2023-05-11T09:17:42;99979.00;;;24.06;22.42
55990;BME280;41875;55.806;38.082;2023-05-11T09:20:12;99973.03;;;24.57;22.19
55990;BME280;41875;55.806;38.082;2023-05-11T09:22:41;99964.66;;;24.05;22.75
55990;BME280;41875;55.806;38.082;2023-05-11T09:25:10;99962.94;;;24.81;21.94
55990;BME280;41875;55.806;38.082;2023-05-11T09:27:41;99951.47;;;23.73;22.32
55990;BME280;41875;55.806;38.082;2023-05-11T09:30:10;99967.38;;;22.55;23.65
55990;BME280;41875;55.806;38.082;2023-05-11T09:32:45;99960.25;;;22.23;24.39
55990;BME280;41875;55.806;38.082;2023-05-11T09:35:19;99962.06;;;22.48;24.18
55990;BME280;41875;55.806;38.082;2023-05-11T09:38:01;99959.19;;;22.24;24.23
55990;BME280;41875;55.806;38.082;2023-05-11T09:40:30;99948.84;;;22.39;24.18
55990;BME280;41875;55.806;38.082;2023-05-11T09:43:00;99953.22;;;21.27;26.01
55990;BME280;41875;55.806;38.082;2023-05-11T09:45:36;99948.03;;;20.03;27.86
55990;BME280;41875;55.806;38.082;2023-05-11T09:48:05;99940.78;;;19.83;29.21
55990;BME280;41875;55.806;38.082;2023-05-11T09:50:35;99954.66;;;19.33;29.73
55990;BME280;41875;55.806;38.082;2023-05-11T09:53:03;99980.16;;;18.82;32.17
55990;BME280;41875;55.806;38.082;2023-05-11T09:55:31;99994.69;;;18.10;34.14
55990;BME280;41875;55.806;38.082;2023-05-11T09:57:59;99977.03;;;18.23;33.63
55990;BME280;41875;55.806;38.082;2023-05-11T10:00:27;99981.19;;;18.81;32.25
55990;BME280;41875;55.806;38.082;2023-05-11T10:02:59;99978.00;;;19.12;29.68
55990;BME280;41875;55.806;38.082;2023-05-11T10:05:29;99977.84;;;18.72;32.84
55990;BME280;41875;55.806;38.082;2023-05-11T10:07:59;99974.91;;;19.22;32.34
55990;BME280;41875;55.806;38.082;2023-05-11T10:10:28;99965.63;;;19.52;31.50
55990;BME280;41875;55.806;38.082;2023-05-11T10:12:57;99978.59;;;20.22;29.69
55990;BME280;41875;55.806;38.082;2023-05-11T10:15:26;99978.09;;;20.45;29.87
55990;BME280;41875;55.806;38.082;2023-05-11T10:17:55;99984.88;;;21.07;28.50
55990;BME280;41875;55.806;38.082;2023-05-11T10:20:24;99980.16;;;21.27;27.29
55990;BME280;41875;55.806;38.082;2023-05-11T10:22:53;99982.50;;;21.49;27.65
55990;BME280;41875;55.806;38.082;2023-05-11T10:25:23;99969.13;;;21.36;27.90
55990;BME280;41875;55.806;38.082;2023-05-11T10:27:55;99973.69;;;21.03;28.62
55990;BME280;41875;55.806;38.082;2023-05-11T10:30:23;99974.44;;;21.17;28.62
55990;BME280;41875;55.806;38.082;2023-05-11T10:32:52;99972.22;;;21.07;29.57
55990;BME280;41875;55.806;38.082;2023-05-11T10:35:22;99962.22;;;20.82;30.08
55990;BME280;41875;55.806;38.082;2023-05-11T10:37:50;99968.47;;;20.10;31.19
55990;BME280;41875;55.806;38.082;2023-05-11T10:40:18;99971.19;;;20.63;30.25
55990;BME280;41875;55.806;38.082;2023-05-11T10:42:58;99975.69;;;21.72;28.65
55990;BME280;41875;55.806;38.082;2023-05-11T10:45:32;99969.50;;;22.83;27.41
55990;BME280;41875;55.806;38.082;2023-05-11T10:48:13;99969.69;;;21.44;28.80
55990;BME280;41875;55.806;38.082;2023-05-11T10:50:51;99976.34;;;21.16;28.65
55990;BME280;41875;55.806;38.082;2023-05-11T10:53:31;99991.56;;;20.38;29.78
55990;BME280;41875;55.806;38.082;2023-05-11T10:56:06;99996.97;;;20.91;28.98
55990;BME280;41875;55.806;38.082;2023-05-11T10:58:51;100014.38;;;20.95;28.46
55990;BME280;41875;55.806;38.082;2023-05-11T11:01:32;100030.03;;;18.98;30.82
55990;BME280;41875;55.806;38.082;2023-05-11T11:04:04;100036.09;;;18.78;31.11
55990;BME280;41875;55.806;38.082;2023-05-11T11:06:33;100036.47;;;17.98;33.23
55990;BME280;41875;55.806;38.082;2023-05-11T11:09:02;100032.69;;;18.21;34.67
55990;BME280;41875;55.806;38.082;2023-05-11T11:11:32;100021.78;;;17.44;36.84
55990;BME280;41875;55.806;38.082;2023-05-11T11:14:02;100020.56;;;16.73;40.20
55990;BME280;41875;55.806;38.082;2023-05-11T11:16:32;100003.97;;;15.88;43.78
55990;BME280;41875;55.806;38.082;2023-05-11T11:21:47;100006.78;;;16.39;41.41
55990;BME280;41875;55.806;38.082;2023-05-11T11:27:04;99979.09;;;16.99;38.50
55990;BME280;41875;55.806;38.082;2023-05-11T11:29:37;99972.81;;;17.78;38.33
55990;BME280;41875;55.806;38.082;2023-05-11T11:32:25;99975.03;;;17.46;40.55
55990;BME280;41875;55.806;38.082;2023-05-11T11:34:54;99962.84;;;17.44;42.01
55990;BME280;41875;55.806;38.082;2023-05-11T11:37:22;99965.97;;;17.47;42.60
55990;BME280;41875;55.806;38.082;2023-05-11T11:39:50;99971.34;;;18.95;39.54
55990;BME280;41875;55.806;38.082;2023-05-11T11:42:40;99963.31;;;19.01;38.66
55990;BME280;41875;55.806;38.082;2023-05-11T11:48:10;99966.06;;;19.95;36.83
55990;BME280;41875;55.806;38.082;2023-05-11T11:50:40;99972.25;;;20.62;35.81
55990;BME280;41875;55.806;38.082;2023-05-11T11:53:09;99974.22;;;20.86;34.31
55990;BME280;41875;55.806;38.082;2023-05-11T11:55:44;99962.72;;;19.33;34.66
55990;BME280;41875;55.806;38.082;2023-05-11T11:58:37;99969.50;;;19.09;34.48
55990;BME280;41875;55.806;38.082;2023-05-11T12:01:12;99958.31;;;18.36;36.19
55990;BME280;41875;55.806;38.082;2023-05-11T12:03:42;99956.78;;;18.69;35.25
55990;BME280;41875;55.806;38.082;2023-05-11T12:06:11;99959.53;;;18.27;36.59
55990;BME280;41875;55.806;38.082;2023-05-11T12:08:40;99949.41;;;17.65;38.17
55990;BME280;41875;55.806;38.082;2023-05-11T12:11:09;99944.38;;;17.84;37.20
55990;BME280;41875;55.806;38.082;2023-05-11T12:13:38;99948.16;;;18.25;36.60
55990;BME280;41875;55.806;38.082;2023-05-11T12:16:06;99943.19;;;18.70;35.92
55990;BME280;41875;55.806;38.082;2023-05-11T12:18:35;99928.00;;;19.52;33.66
55990;BME280;41875;55.806;38.082;2023-05-11T12:21:05;99923.59;;;20.11;32.75
55990;BME280;41875;55.806;38.082;2023-05-11T12:23:33;99925.00;;;20.20;31.91
55990;BME280;41875;55.806;38.082;2023-05-11T12:26:01;99923.47;;;19.05;36.35
55990;BME280;41875;55.806;38.082;2023-05-11T12:28:29;99930.56;;;18.16;38.86
55990;BME280;41875;55.806;38.082;2023-05-11T12:30:58;99927.72;;;18.17;38.45
55990;BME280;41875;55.806;38.082;2023-05-11T12:33:26;99927.94;;;18.22;39.99
55990;BME280;41875;55.806;38.082;2023-05-11T12:35:55;99924.44;;;18.22;39.78
55990;BME280;41875;55.806;38.082;2023-05-11T12:38:24;99925.47;;;18.83;38.24
55990;BME280;41875;55.806;38.082;2023-05-11T12:40:53;99919.13;;;19.04;37.50
55990;BME280;41875;55.806;38.082;2023-05-11T12:43:21;99919.75;;;19.13;34.51
55990;BME280;41875;55.806;38.082;2023-05-11T12:45:49;99922.84;;;19.57;35.17
55990;BME280;41875;55.806;38.082;2023-05-11T12:48:17;99926.53;;;19.89;34.82
55990;BME280;41875;55.806;38.082;2023-05-11T12:50:46;99915.38;;;19.92;33.18
55990;BME280;41875;55.806;38.082;2023-05-11T12:53:14;99919.28;;;19.97;32.84
55990;BME280;41875;55.806;38.082;2023-05-11T12:55:44;99916.78;;;20.02;32.69
55990;BME280;41875;55.806;38.082;2023-05-11T12:58:13;99906.31;;;19.33;34.82
55990;BME280;41875;55.806;38.082;2023-05-11T13:00:50;99908.56;;;19.63;33.91
55990;BME280;41875;55.806;38.082;2023-05-11T13:03:20;99907.13;;;19.67;33.69
55990;BME280;41875;55.806;38.082;2023-05-11T13:05:49;99909.34;;;20.04;32.93
55990;BME280;41875;55.806;38.082;2023-05-11T13:08:18;99912.50;;;19.60;33.77
55990;BME280;41875;55.806;38.082;2023-05-11T13:10:47;99918.34;;;20.30;32.08